createdAt,value
2022-12-28T00:00:56.889Z,421.00
2022-12-28T00:01:56.924Z,417.00
2022-12-28T00:02:56.889Z,418.00
2022-12-28T00:03:56.838Z,419.00
2022-12-28T00:04:56.819Z,421.00
2022-12-28T00:05:56.791Z,419.00
2022-12-28T00:06:56.782Z,421.00
2022-12-28T00:07:56.758Z,419.00
2022-12-28T00:08:56.759Z,419.00
2022-12-28T00:09:56.777Z,419.00
2022-12-28T00:11:09.464Z,419.00
2022-12-28T00:11:56.681Z,419.00
2022-12-28T00:12:56.654Z,418.00
2022-12-28T00:13:56.645Z,416.00
2022-12-28T00:14:56.647Z,418.00
2022-12-28T00:15:56.678Z,415.00
2022-12-28T00:16:56.615Z,419.00
2022-12-28T00:17:56.575Z,418.00
2022-12-28T00:18:56.575Z,416.00
2022-12-28T00:19:56.550Z,416.00
2022-12-28T00:20:56.531Z,416.00
2022-12-28T00:21:56.508Z,419.00
2022-12-28T00:22:56.485Z,420.00
2022-12-28T00:23:58.006Z,419.00
2022-12-28T00:24:56.451Z,419.00
2022-12-28T00:25:56.422Z,420.00
2022-12-28T00:26:56.390Z,418.00
2022-12-28T00:27:56.381Z,417.00
2022-12-28T00:29:03.674Z,420.00
2022-12-28T00:29:57.349Z,420.00
2022-12-28T00:30:56.313Z,420.00
2022-12-28T00:31:56.333Z,420.00
2022-12-28T00:32:56.265Z,418.00
2022-12-28T00:33:56.260Z,418.00
2022-12-28T00:34:56.268Z,420.00
2022-12-28T00:35:56.213Z,418.00
2022-12-28T00:37:09.320Z,420.00
2022-12-28T00:37:57.164Z,421.00
2022-12-28T00:38:56.186Z,419.00
2022-12-28T00:39:56.156Z,421.00
2022-12-28T00:40:56.155Z,422.00
2022-12-28T00:41:56.114Z,421.00
2022-12-28T00:42:56.075Z,422.00
2022-12-28T00:43:56.083Z,424.00
2022-12-28T00:44:56.075Z,422.00
2022-12-28T00:45:56.101Z,422.00
2022-12-28T00:46:56.036Z,424.00
2022-12-28T00:47:56.034Z,424.00
2022-12-28T00:48:55.974Z,424.00
2022-12-28T00:49:55.963Z,423.00
2022-12-28T00:50:55.942Z,421.00
2022-12-28T00:51:55.927Z,419.00
2022-12-28T00:52:55.916Z,418.00
2022-12-28T00:53:55.908Z,416.00
2022-12-28T00:54:55.868Z,414.00
2022-12-28T00:55:55.836Z,412.00
2022-12-28T00:56:55.797Z,411.00
2022-12-28T00:57:55.804Z,413.00
2022-12-28T00:58:55.771Z,415.00
2022-12-28T00:59:55.825Z,415.00
2022-12-28T01:00:55.824Z,417.00
2022-12-28T01:01:55.860Z,420.00
2022-12-28T01:02:55.737Z,418.00
2022-12-28T01:03:55.667Z,418.00
2022-12-28T01:04:55.681Z,414.00
2022-12-28T01:05:55.645Z,412.00
2022-12-28T01:06:55.658Z,411.00
2022-12-28T01:07:55.607Z,414.00
2022-12-28T01:08:55.597Z,415.00
2022-12-28T01:09:55.572Z,420.00
2022-12-28T01:10:55.587Z,420.00
2022-12-28T01:11:55.544Z,420.00
2022-12-28T01:12:55.518Z,420.00
2022-12-28T01:13:55.507Z,417.00
2022-12-28T01:14:55.476Z,417.00
2022-12-28T01:15:55.499Z,416.00
2022-12-28T01:16:55.500Z,416.00
2022-12-28T01:17:55.435Z,412.00
2022-12-28T01:18:55.403Z,409.00
2022-12-28T01:19:55.410Z,409.00
2022-12-28T01:20:55.390Z,410.00
2022-12-28T01:21:55.348Z,408.00
2022-12-28T01:22:55.328Z,409.00
2022-12-28T01:23:55.310Z,408.00
2022-12-28T01:24:55.308Z,408.00
2022-12-28T01:25:55.288Z,411.00
2022-12-28T01:26:55.261Z,415.00
2022-12-28T01:27:55.232Z,418.00
2022-12-28T01:28:55.204Z,416.00
2022-12-28T01:29:55.213Z,414.00
2022-12-28T01:30:55.207Z,414.00
2022-12-28T01:31:55.194Z,413.00
2022-12-28T01:32:55.149Z,413.00
2022-12-28T01:33:55.149Z,410.00
2022-12-28T01:34:55.102Z,409.00
2022-12-28T01:35:55.110Z,411.00
2022-12-28T01:36:55.069Z,412.00
2022-12-28T01:37:55.057Z,413.00
2022-12-28T01:38:55.031Z,413.00
2022-12-28T01:39:55.021Z,414.00
2022-12-28T01:40:54.998Z,414.00
2022-12-28T01:41:54.969Z,415.00
2022-12-28T01:42:54.948Z,412.00
2022-12-28T01:43:54.932Z,413.00
2022-12-28T01:44:54.908Z,412.00
2022-12-28T01:45:54.949Z,413.00
2022-12-28T01:46:54.874Z,414.00
2022-12-28T01:47:54.845Z,413.00
2022-12-28T01:48:54.823Z,409.00
2022-12-28T01:49:54.809Z,407.00
2022-12-28T01:50:54.797Z,409.00
2022-12-28T01:51:54.765Z,412.00
2022-12-28T01:52:54.760Z,412.00
2022-12-28T01:53:54.728Z,414.00
2022-12-28T01:54:54.691Z,414.00
2022-12-28T01:55:54.692Z,412.00
2022-12-28T01:56:54.898Z,413.00
2022-12-28T01:57:54.655Z,410.00
2022-12-28T01:58:54.619Z,412.00
2022-12-28T01:59:54.598Z,413.00
2022-12-28T02:00:54.770Z,410.00
2022-12-28T02:01:54.637Z,407.00
2022-12-28T02:02:54.617Z,406.00
2022-12-28T02:03:54.576Z,405.00
2022-12-28T02:04:54.542Z,408.00
2022-12-28T02:05:54.513Z,408.00
2022-12-28T02:06:54.489Z,407.00
2022-12-28T02:07:54.475Z,409.00
2022-12-28T02:08:54.463Z,408.00
2022-12-28T02:10:42.328Z,411.00
2022-12-28T02:10:55.383Z,413.00
2022-12-28T02:11:54.391Z,414.00
2022-12-28T02:12:54.359Z,413.00
2022-12-28T02:13:54.350Z,413.00
2022-12-28T02:14:54.321Z,412.00
2022-12-28T02:15:54.310Z,414.00
2022-12-28T02:16:54.382Z,414.00
2022-12-28T02:17:54.269Z,415.00
2022-12-28T02:18:54.267Z,414.00
2022-12-28T02:19:54.221Z,418.00
2022-12-28T02:20:54.223Z,418.00
2022-12-28T02:21:54.184Z,418.00
2022-12-28T02:22:54.154Z,418.00
2022-12-28T02:23:54.132Z,417.00
2022-12-28T02:25:12.082Z,416.00
2022-12-28T02:25:55.071Z,417.00
2022-12-28T02:26:54.081Z,417.00
2022-12-28T02:27:54.037Z,418.00
2022-12-28T02:28:54.005Z,418.00
2022-12-28T02:29:53.992Z,418.00
2022-12-28T02:30:53.989Z,418.00
2022-12-28T02:31:53.961Z,418.00
2022-12-28T02:32:53.898Z,421.00
2022-12-28T02:33:53.891Z,419.00
2022-12-28T02:34:53.848Z,420.00
2022-12-28T02:35:53.821Z,422.00
2022-12-28T02:36:53.824Z,421.00
2022-12-28T02:37:53.786Z,419.00
2022-12-28T02:38:53.765Z,422.00
2022-12-28T02:39:53.746Z,424.00
2022-12-28T02:40:53.722Z,424.00
2022-12-28T02:41:53.712Z,424.00
2022-12-28T02:42:53.665Z,423.00
2022-12-28T02:43:53.651Z,425.00
2022-12-28T02:44:53.623Z,426.00
2022-12-28T02:45:53.650Z,426.00
2022-12-28T02:46:53.576Z,425.00
2022-12-28T02:47:53.562Z,422.00
2022-12-28T02:48:53.525Z,424.00
2022-12-28T02:49:53.497Z,423.00
2022-12-28T02:50:53.486Z,420.00
2022-12-28T02:51:53.469Z,418.00
2022-12-28T02:52:53.453Z,416.00
2022-12-28T02:53:53.420Z,416.00
2022-12-28T02:54:53.423Z,417.00
2022-12-28T02:55:53.396Z,418.00
2022-12-28T02:56:53.402Z,419.00
2022-12-28T02:57:53.319Z,417.00
2022-12-28T02:58:53.310Z,417.00
2022-12-28T02:59:53.288Z,419.00
2022-12-28T03:00:53.273Z,420.00
2022-12-28T03:01:53.444Z,418.00
2022-12-28T03:02:53.316Z,417.00
2022-12-28T03:03:53.213Z,420.00
2022-12-28T03:04:53.179Z,419.00
2022-12-28T03:05:53.125Z,420.00
2022-12-28T03:06:53.128Z,419.00
2022-12-28T03:07:53.114Z,419.00
2022-12-28T03:08:53.089Z,417.00
2022-12-28T03:09:53.078Z,416.00
2022-12-28T03:10:53.060Z,415.00
2022-12-28T03:11:53.048Z,413.00
2022-12-28T03:12:53.016Z,413.00
2022-12-28T03:13:52.981Z,415.00
2022-12-28T03:14:52.931Z,414.00
2022-12-28T03:15:52.982Z,415.00
2022-12-28T03:16:52.937Z,414.00
2022-12-28T03:17:52.896Z,412.00
2022-12-28T03:18:52.864Z,414.00
2022-12-28T03:19:52.858Z,416.00
2022-12-28T03:20:52.823Z,415.00
2022-12-28T03:21:52.817Z,417.00
2022-12-28T03:22:52.798Z,419.00
2022-12-28T03:23:52.770Z,415.00
2022-12-28T03:24:52.738Z,411.00
2022-12-28T03:25:52.736Z,409.00
2022-12-28T03:26:52.692Z,408.00
2022-12-28T03:27:52.688Z,407.00
2022-12-28T03:28:52.645Z,408.00
2022-12-28T03:29:52.621Z,408.00
2022-12-28T03:30:52.633Z,407.00
2022-12-28T03:31:52.580Z,409.00
2022-12-28T03:32:52.588Z,406.00
2022-12-28T03:33:52.545Z,406.00
2022-12-28T03:34:52.507Z,405.00
2022-12-28T03:35:52.493Z,408.00
2022-12-28T03:36:52.457Z,409.00
2022-12-28T03:37:52.439Z,409.00
2022-12-28T03:38:52.438Z,409.00
2022-12-28T03:39:52.412Z,407.00
2022-12-28T03:40:52.351Z,408.00
2022-12-28T03:41:52.360Z,410.00
2022-12-28T03:42:52.341Z,414.00
2022-12-28T03:43:52.309Z,413.00
2022-12-28T03:44:52.286Z,412.00
2022-12-28T03:45:52.273Z,412.00
2022-12-28T03:46:52.255Z,414.00
2022-12-28T03:47:52.276Z,414.00
2022-12-28T03:48:52.213Z,414.00
2022-12-28T03:49:52.190Z,412.00
2022-12-28T03:50:52.189Z,410.00
2022-12-28T03:51:52.147Z,409.00
2022-12-28T03:52:52.148Z,409.00
2022-12-28T03:53:52.131Z,407.00
2022-12-28T03:54:52.104Z,406.00
2022-12-28T03:55:52.113Z,406.00
2022-12-28T03:56:52.088Z,408.00
2022-12-28T03:57:52.564Z,411.00
2022-12-28T03:58:52.043Z,410.00
2022-12-28T03:59:52.035Z,411.00
2022-12-28T04:00:52.043Z,409.00
2022-12-28T04:01:52.078Z,411.00
2022-12-28T04:02:52.070Z,410.00
2022-12-28T04:03:51.984Z,408.00
2022-12-28T04:04:52.018Z,410.00
2022-12-28T04:05:51.940Z,410.00
2022-12-28T04:06:51.927Z,409.00
2022-12-28T04:07:51.906Z,409.00
2022-12-28T04:08:51.916Z,408.00
2022-12-28T04:09:51.889Z,408.00
2022-12-28T04:10:51.857Z,410.00
2022-12-28T04:11:51.853Z,410.00
2022-12-28T04:12:51.854Z,410.00
2022-12-28T04:13:51.827Z,415.00
2022-12-28T04:14:51.785Z,417.00
2022-12-28T04:15:51.793Z,415.00
2022-12-28T04:16:51.774Z,415.00
2022-12-28T04:17:51.759Z,415.00
2022-12-28T04:18:51.756Z,414.00
2022-12-28T04:19:51.717Z,412.00
2022-12-28T04:20:51.692Z,409.00
2022-12-28T04:21:51.675Z,405.00
2022-12-28T04:22:51.659Z,406.00
2022-12-28T04:23:51.637Z,408.00
2022-12-28T04:24:51.585Z,407.00
2022-12-28T04:25:51.581Z,409.00
2022-12-28T04:26:51.553Z,408.00
2022-12-28T04:27:51.545Z,410.00
2022-12-28T04:28:51.506Z,410.00
2022-12-28T04:29:51.474Z,408.00
2022-12-28T04:30:51.573Z,410.00
2022-12-28T04:31:51.425Z,410.00
2022-12-28T04:32:51.430Z,411.00
2022-12-28T04:33:51.427Z,409.00
2022-12-28T04:34:51.386Z,410.00
2022-12-28T04:35:51.363Z,411.00
2022-12-28T04:36:51.360Z,411.00
2022-12-28T04:37:51.336Z,412.00
2022-12-28T04:38:51.319Z,411.00
2022-12-28T04:39:56.359Z,409.00
2022-12-28T04:40:52.257Z,406.00
2022-12-28T04:41:51.275Z,407.00
2022-12-28T04:42:51.232Z,406.00
2022-12-28T04:43:51.237Z,406.00
2022-12-28T04:44:51.199Z,406.00
2022-12-28T04:45:51.166Z,404.00
2022-12-28T04:46:51.190Z,400.00
2022-12-28T04:47:51.161Z,397.00
2022-12-28T04:48:51.149Z,396.00
2022-12-28T04:49:51.094Z,397.00
2022-12-28T04:50:51.084Z,398.00
2022-12-28T04:51:51.063Z,400.00
2022-12-28T04:52:51.053Z,401.00
2022-12-28T04:53:51.047Z,400.00
2022-12-28T04:54:51.008Z,399.00
2022-12-28T04:55:51.010Z,402.00
2022-12-28T04:56:50.965Z,402.00
2022-12-28T04:57:50.944Z,404.00
2022-12-28T04:58:50.936Z,405.00
2022-12-28T04:59:50.938Z,404.00
2022-12-28T05:00:50.934Z,403.00
2022-12-28T05:01:50.960Z,403.00
2022-12-28T05:02:50.876Z,404.00
2022-12-28T05:03:55.070Z,404.00
2022-12-28T05:04:51.849Z,405.00
2022-12-28T05:05:50.800Z,404.00
2022-12-28T05:06:50.780Z,402.00
2022-12-28T05:07:50.769Z,401.00
2022-12-28T05:08:50.800Z,403.00
2022-12-28T05:09:50.732Z,402.00
2022-12-28T05:10:50.715Z,402.00
2022-12-28T05:11:50.700Z,399.00
2022-12-28T05:12:50.668Z,401.00
2022-12-28T05:13:50.640Z,401.00
2022-12-28T05:14:50.637Z,402.00
2022-12-28T05:15:50.627Z,403.00
2022-12-28T05:16:50.594Z,404.00
2022-12-28T05:17:50.572Z,403.00
2022-12-28T05:18:50.551Z,402.00
2022-12-28T05:19:50.553Z,402.00
2022-12-28T05:20:50.531Z,404.00
2022-12-28T05:21:50.498Z,404.00
2022-12-28T05:22:50.483Z,404.00
2022-12-28T05:23:50.467Z,405.00
2022-12-28T05:24:50.461Z,406.00
2022-12-28T05:25:50.438Z,405.00
2022-12-28T05:26:50.416Z,405.00
2022-12-28T05:27:50.384Z,405.00
2022-12-28T05:28:50.361Z,406.00
2022-12-28T05:29:50.364Z,406.00
2022-12-28T05:30:50.325Z,406.00
2022-12-28T05:31:50.389Z,407.00
2022-12-28T05:32:50.313Z,406.00
2022-12-28T05:33:50.279Z,405.00
2022-12-28T05:34:50.256Z,402.00
2022-12-28T05:35:50.239Z,403.00
2022-12-28T05:36:50.213Z,401.00
2022-12-28T05:37:50.191Z,400.00
2022-12-28T05:38:50.174Z,401.00
2022-12-28T05:39:50.146Z,400.00
2022-12-28T05:40:50.117Z,402.00
2022-12-28T05:41:50.089Z,402.00
2022-12-28T05:42:51.741Z,404.00
2022-12-28T05:43:50.047Z,403.00
2022-12-28T05:44:50.028Z,401.00
2022-12-28T05:45:50.016Z,402.00
2022-12-28T05:46:50.011Z,404.00
2022-12-28T05:47:49.960Z,406.00
2022-12-28T05:48:49.948Z,405.00
2022-12-28T05:49:49.919Z,406.00
2022-12-28T05:50:49.895Z,405.00
2022-12-28T05:51:49.872Z,404.00
2022-12-28T05:52:49.840Z,406.00
2022-12-28T05:53:49.818Z,405.00
2022-12-28T05:54:49.809Z,405.00
2022-12-28T05:55:49.779Z,404.00
2022-12-28T05:56:49.767Z,403.00
2022-12-28T05:57:49.759Z,400.00
2022-12-28T05:58:49.735Z,400.00
2022-12-28T05:59:49.741Z,404.00
2022-12-28T06:00:49.697Z,403.00
2022-12-28T06:01:49.868Z,403.00
2022-12-28T06:02:49.754Z,404.00
2022-12-28T06:03:49.636Z,401.00
2022-12-28T06:04:49.634Z,400.00
2022-12-28T06:05:49.608Z,402.00
2022-12-28T06:06:49.624Z,399.00
2022-12-28T06:07:49.568Z,396.00
2022-12-28T06:08:49.577Z,398.00
2022-12-28T06:09:49.557Z,398.00
2022-12-28T06:10:49.551Z,399.00
2022-12-28T06:11:49.506Z,398.00
2022-12-28T06:12:49.490Z,398.00
2022-12-28T06:13:49.453Z,398.00
2022-12-28T06:14:49.449Z,397.00
2022-12-28T06:15:49.449Z,400.00
2022-12-28T06:16:49.448Z,400.00
2022-12-28T06:17:49.382Z,399.00
2022-12-28T06:18:49.370Z,398.00
2022-12-28T06:19:49.347Z,399.00
2022-12-28T06:20:55.273Z,397.00
2022-12-28T06:21:50.328Z,398.00
2022-12-28T06:22:49.319Z,395.00
2022-12-28T06:23:49.290Z,397.00
2022-12-28T06:24:49.277Z,398.00
2022-12-28T06:25:49.271Z,400.00
2022-12-28T06:26:51.131Z,400.00
2022-12-28T06:27:49.208Z,398.00
2022-12-28T06:28:49.211Z,396.00
2022-12-28T06:29:49.154Z,393.00
2022-12-28T06:30:52.859Z,393.00
2022-12-28T06:31:49.229Z,393.00
2022-12-28T06:32:49.123Z,393.00
2022-12-28T06:33:49.124Z,395.00
2022-12-28T06:34:49.073Z,395.00
2022-12-28T06:35:49.082Z,394.00
2022-12-28T06:36:49.047Z,394.00
2022-12-28T06:37:49.034Z,396.00
2022-12-28T06:38:49.057Z,395.00
2022-12-28T06:39:49.010Z,396.00
2022-12-28T06:41:12.193Z,396.00
2022-12-28T06:42:48.966Z,398.00
2022-12-28T06:43:48.958Z,398.00
2022-12-28T06:44:48.935Z,398.00
2022-12-28T06:45:48.968Z,398.00
2022-12-28T07:16:48.474Z,396.00
2022-12-28T07:17:48.441Z,394.00
2022-12-28T07:18:48.408Z,394.00
2022-12-28T07:19:48.387Z,397.00
2022-12-28T07:20:48.403Z,400.00
2022-12-28T07:21:48.362Z,404.00
2022-12-28T07:22:48.330Z,406.00
2022-12-28T07:23:48.305Z,404.00
2022-12-28T07:24:48.290Z,403.00
2022-12-28T07:25:48.285Z,399.00
2022-12-28T07:26:48.281Z,400.00
2022-12-28T07:27:48.240Z,399.00
2022-12-28T07:28:48.217Z,399.00
2022-12-28T07:29:48.188Z,396.00
2022-12-28T07:30:48.248Z,395.00
2022-12-28T07:31:48.156Z,396.00
2022-12-28T07:32:48.126Z,396.00
2022-12-28T07:33:48.125Z,398.00
2022-12-28T07:34:48.095Z,398.00
2022-12-28T07:35:48.063Z,397.00
2022-12-28T07:36:48.059Z,397.00
2022-12-28T07:37:48.048Z,397.00
2022-12-28T07:38:48.027Z,400.00
2022-12-28T07:39:48.005Z,401.00
2022-12-28T07:40:48.007Z,404.00
2022-12-28T07:41:48.003Z,406.00
2022-12-28T07:42:47.976Z,407.00
2022-12-28T07:43:47.937Z,405.00
2022-12-28T07:44:49.315Z,404.00
2022-12-28T07:45:47.952Z,402.00
2022-12-28T07:46:47.902Z,401.00
2022-12-28T07:47:47.851Z,402.00
2022-12-28T07:48:47.863Z,403.00
2022-12-28T07:49:47.815Z,403.00
2022-12-28T07:50:47.814Z,402.00
2022-12-28T07:51:47.775Z,402.00
2022-12-28T07:52:47.770Z,402.00
2022-12-28T07:53:47.748Z,402.00
2022-12-28T07:54:47.712Z,402.00
2022-12-28T07:55:47.721Z,406.00
2022-12-28T07:56:47.701Z,406.00
2022-12-28T07:57:47.670Z,404.00
2022-12-28T09:47:53.309Z,410.00
2022-12-28T09:48:53.231Z,411.00
2022-12-28T09:49:53.164Z,411.00
2022-12-28T09:50:53.152Z,412.00
2022-12-28T09:51:53.110Z,413.00
2022-12-28T09:52:53.071Z,414.00
2022-12-28T09:53:53.054Z,412.00
2022-12-28T09:54:53.043Z,410.00
2022-12-28T09:55:52.964Z,409.00
2022-12-28T09:56:52.920Z,408.00
2022-12-28T09:57:52.897Z,411.00
2022-12-28T09:58:52.862Z,414.00
2022-12-28T09:59:52.839Z,412.00
2022-12-28T10:00:52.791Z,409.00
2022-12-28T10:01:52.853Z,407.00
2022-12-28T10:02:52.811Z,407.00
2022-12-28T10:03:52.691Z,408.00
2022-12-28T10:04:52.607Z,410.00
2022-12-28T10:05:52.567Z,413.00
2022-12-28T10:06:52.512Z,414.00
2022-12-28T10:07:52.477Z,411.00
2022-12-28T10:08:52.451Z,411.00
2022-12-28T10:09:52.414Z,408.00
2022-12-28T10:10:52.361Z,405.00
2022-12-28T10:11:52.315Z,407.00
2022-12-28T10:12:52.281Z,407.00
2022-12-28T10:13:55.095Z,410.00
2022-12-28T10:14:52.182Z,411.00
2022-12-28T10:15:52.176Z,411.00
2022-12-28T10:16:52.118Z,412.00
2022-12-28T10:17:52.089Z,410.00
2022-12-28T10:18:52.085Z,410.00
2022-12-28T10:19:51.992Z,411.00
2022-12-28T10:20:51.955Z,410.00
2022-12-28T10:21:51.907Z,409.00
2022-12-28T10:22:51.862Z,407.00
2022-12-28T10:24:29.304Z,405.00
2022-12-28T10:24:52.795Z,405.00
2022-12-28T10:25:51.749Z,404.00
2022-12-28T10:26:51.719Z,406.00
2022-12-28T10:27:51.681Z,405.00
2022-12-28T10:28:51.630Z,406.00
2022-12-28T10:29:51.625Z,403.00
2022-12-28T10:30:51.559Z,404.00
2022-12-28T10:31:51.511Z,406.00
2022-12-28T10:32:51.481Z,406.00
2022-12-28T10:33:51.424Z,406.00
2022-12-28T10:34:51.409Z,408.00
2022-12-28T10:35:51.340Z,408.00
2022-12-28T10:36:51.300Z,409.00
2022-12-28T10:37:51.257Z,408.00
2022-12-28T10:38:51.227Z,409.00
2022-12-28T10:39:51.191Z,411.00
2022-12-28T10:40:51.154Z,411.00
2022-12-28T10:41:51.080Z,410.00
2022-12-28T10:42:51.067Z,409.00
2022-12-28T14:31:42.594Z,406.00
2022-12-28T14:32:43.212Z,403.00
2022-12-28T14:33:42.526Z,406.00
2022-12-28T14:34:42.495Z,403.00
2022-12-28T14:35:42.460Z,405.00
2022-12-28T14:36:42.426Z,404.00
2022-12-28T14:37:42.401Z,402.00
2022-12-28T14:38:42.396Z,402.00
2022-12-28T14:39:42.372Z,402.00
2022-12-28T14:40:42.349Z,403.00
2022-12-28T14:41:42.308Z,401.00
2022-12-28T14:42:42.255Z,400.00
2022-12-28T14:43:42.257Z,399.00
2022-12-28T14:44:42.175Z,399.00
2022-12-28T14:46:43.149Z,400.00
2022-12-28T14:47:42.095Z,399.00
2022-12-28T14:48:42.119Z,399.00
2022-12-28T14:49:42.023Z,400.00
2022-12-28T14:50:41.998Z,403.00
2022-12-28T14:51:44.430Z,403.00
2022-12-28T14:52:42.129Z,402.00
2022-12-28T14:53:42.081Z,400.00
2022-12-28T14:54:42.020Z,401.00
2022-12-28T14:55:41.970Z,402.00
2022-12-28T14:56:41.950Z,402.00
2022-12-28T14:57:41.919Z,400.00
2022-12-28T14:58:41.971Z,397.00
2022-12-28T14:59:41.873Z,398.00
2022-12-28T15:00:16.176Z,400.00
2022-12-28T15:00:41.793Z,398.00
2022-12-28T15:01:41.976Z,397.00
2022-12-28T15:02:41.863Z,398.00
2022-12-28T15:03:41.763Z,397.00
2022-12-28T15:04:41.717Z,398.00
2022-12-28T15:05:41.652Z,399.00
2022-12-28T15:06:41.627Z,398.00
2022-12-28T15:07:41.596Z,396.00
2022-12-28T15:08:41.620Z,397.00
2022-12-28T15:09:41.526Z,398.00
2022-12-28T15:10:41.526Z,400.00
2022-12-28T15:11:41.484Z,400.00
2022-12-28T15:12:41.446Z,397.00
2022-12-28T15:13:41.430Z,401.00
2022-12-28T15:14:41.429Z,402.00
2022-12-28T15:15:41.360Z,401.00
2022-12-28T15:16:41.423Z,403.00
2022-12-28T15:17:41.295Z,404.00
2022-12-28T15:18:41.274Z,403.00
2022-12-28T15:19:41.261Z,403.00
2022-12-28T15:20:41.222Z,401.00
2022-12-28T15:21:41.199Z,397.00
2022-12-28T15:22:41.184Z,396.00
2022-12-28T15:23:41.124Z,399.00
2022-12-28T15:24:41.099Z,400.00
2022-12-28T15:25:41.097Z,401.00
2022-12-28T15:52:42.324Z,399.00
2022-12-28T22:04:33.833Z,391.00
2022-12-28T22:05:33.814Z,388.00
2022-12-28T22:06:33.789Z,385.00
2022-12-28T22:07:33.771Z,386.00
2022-12-28T22:08:33.770Z,386.00
2022-12-28T22:09:33.729Z,387.00
2022-12-28T22:10:33.758Z,389.00
2022-12-28T22:11:33.718Z,389.00
2022-12-28T22:12:33.695Z,389.00
2022-12-28T22:13:33.746Z,391.00
2022-12-28T22:14:33.666Z,390.00
2022-12-28T22:15:33.658Z,389.00
2022-12-28T22:16:33.736Z,390.00
2022-12-28T22:17:33.629Z,391.00
2022-12-28T22:19:03.742Z,393.00
2022-12-28T22:19:34.611Z,393.00
2022-12-28T22:20:33.612Z,392.00
2022-12-28T22:21:33.587Z,393.00
2022-12-28T22:22:33.565Z,392.00
2022-12-28T22:23:35.032Z,391.00
2022-12-28T22:24:33.499Z,390.00
2022-12-28T22:25:33.532Z,388.00
2022-12-28T22:26:33.517Z,388.00
2022-12-28T22:27:33.476Z,389.00
2022-12-28T22:28:33.462Z,391.00
2022-12-28T22:29:33.446Z,394.00
2022-12-28T22:30:33.448Z,396.00
2022-12-28T22:31:33.457Z,396.00
2022-12-28T22:32:33.413Z,395.00
2022-12-28T22:33:33.388Z,394.00
2022-12-28T22:34:33.384Z,391.00
2022-12-28T22:35:33.374Z,390.00
2022-12-28T22:36:33.333Z,391.00
2022-12-28T22:37:33.315Z,392.00
2022-12-28T22:38:33.297Z,392.00
2022-12-28T22:39:33.279Z,392.00
2022-12-28T22:40:33.267Z,391.00
2022-12-28T22:41:33.265Z,391.00
2022-12-28T22:42:33.218Z,392.00
2022-12-28T22:43:33.212Z,394.00
2022-12-28T22:44:33.183Z,393.00
2022-12-28T22:45:33.185Z,395.00
2022-12-28T22:46:33.192Z,394.00
2022-12-28T22:47:33.136Z,395.00
2022-12-28T22:48:33.147Z,395.00
2022-12-28T22:49:33.147Z,394.00
2022-12-28T22:50:35.766Z,394.00
2022-12-28T22:51:34.098Z,395.00
2022-12-28T22:52:33.062Z,394.00
2022-12-28T22:53:33.048Z,393.00
2022-12-28T22:54:33.034Z,391.00
2022-12-28T22:55:33.006Z,391.00
2022-12-28T22:56:33.000Z,391.00
2022-12-28T22:57:33.010Z,392.00
2022-12-28T22:58:32.954Z,392.00
2022-12-28T22:59:32.931Z,393.00
2022-12-28T23:00:32.928Z,394.00
2022-12-28T23:01:32.987Z,394.00
2022-12-28T23:02:33.083Z,392.00
2022-12-28T23:03:32.919Z,392.00
2022-12-28T23:04:32.852Z,392.00
2022-12-28T23:05:32.810Z,396.00
2022-12-28T23:06:32.834Z,395.00
2022-12-28T23:07:32.800Z,396.00
2022-12-28T23:08:32.778Z,397.00
2022-12-28T23:09:32.762Z,397.00
2022-12-28T23:10:32.730Z,398.00
2022-12-28T23:11:32.732Z,396.00
2022-12-28T23:12:32.719Z,395.00
2022-12-28T23:13:32.697Z,394.00
2022-12-28T23:14:32.683Z,394.00
2022-12-28T23:15:32.665Z,394.00
2022-12-28T23:16:32.707Z,394.00
2022-12-28T23:17:32.626Z,393.00
2022-12-28T23:18:32.601Z,391.00
2022-12-28T23:19:32.598Z,395.00
2022-12-28T23:20:32.567Z,395.00
2022-12-28T23:21:32.570Z,397.00
2022-12-28T23:22:32.555Z,397.00
2022-12-28T23:23:32.544Z,397.00
2022-12-28T23:24:32.572Z,398.00
2022-12-28T23:25:32.505Z,397.00
2022-12-28T23:26:32.470Z,395.00
2022-12-28T23:27:32.482Z,394.00
2022-12-28T23:28:32.451Z,394.00
2022-12-28T23:29:32.428Z,394.00
2022-12-28T23:30:32.471Z,394.00
2022-12-28T23:31:32.407Z,393.00
2022-12-28T23:32:32.419Z,391.00
2022-12-28T23:33:32.374Z,392.00
2022-12-28T23:34:32.366Z,394.00
2022-12-28T23:35:32.352Z,392.00
2022-12-28T23:36:32.329Z,390.00
2022-12-28T23:37:32.317Z,388.00
2022-12-28T23:38:32.286Z,391.00
2022-12-28T23:39:32.270Z,390.00
2022-12-28T23:40:32.256Z,389.00
2022-12-28T23:41:32.252Z,391.00
2022-12-28T23:42:32.248Z,392.00
2022-12-28T23:43:32.218Z,394.00
2022-12-28T23:44:32.195Z,394.00
2022-12-28T23:45:32.183Z,393.00
2022-12-28T23:46:32.177Z,394.00
2022-12-28T23:47:32.155Z,392.00
2022-12-28T23:48:32.124Z,389.00
2022-12-28T23:49:32.118Z,390.00
2022-12-28T23:50:32.092Z,387.00
2022-12-28T23:51:32.064Z,389.00
2022-12-28T23:52:32.059Z,389.00
2022-12-28T23:53:33.054Z,390.00
2022-12-28T23:54:32.010Z,391.00
2022-12-28T23:55:31.982Z,390.00
2022-12-28T23:56:31.955Z,388.00
2022-12-28T23:57:31.977Z,387.00
2022-12-28T23:58:31.906Z,387.00
2022-12-28T23:59:31.927Z,388.00
